Lawrence, Kansas
Current Conditions -  °F | °C
As of 11:52 PM on Saturday 20 Dec 2014 (Local Time) from KLWC Reporting Station
Haze Haze  
Wind Chill: -2°   Ceiling: Unl
Heat Index:   Visibility: 6mi
Dew Point:   Wind: 10mph
Humidity: 86%   Direction: 170°S
Pressure: 30.11"   Gusts: NA
Location:  38.97°N, 95.24°W
Report Text: KLWC 210552Z AUTO 17009KT 6SM BR CLR 02/00 A3011 RMK AO2 SLP200 T00220000 10050 20017 400940000 58006
Loading
Personal Weather Stations






























Interactive Weather Map New forecast layout! Learn more

10-Day Weather Forecast

Advertisements
Track Severe Weather on mobile